Time;durP1;ratioP1;P1;durP2;ratioP2;P2;SDS_P1;SDS_P2;PMS_P1;PMS_P2;Temp;Humidity;BMP_temperature;BMP_pressure;BME280_temperature;BME280_humidity;BME280_pressure;Samples;Min_cycle;Max_cycle;Signal;HPM_P1;HPM_P2
2022/07/01 00:02:22;;;;;;;3.10;0.52;;;24.70;52.50;23.90;101034.00;;;;5059803;28;20399;-66
2022/07/01 00:05:08;;;;;;;1.67;0.70;;;24.80;52.60;23.90;101038.00;;;;5057728;28;20041;-66
2022/07/01 00:07:54;;;;;;;1.10;0.50;;;24.80;52.40;23.80;101012.00;;;;5044396;28;20053;-66
2022/07/01 00:10:41;;;;;;;0.63;0.50;;;24.80;52.50;23.80;101018.00;;;;5063118;28;20044;-66
2022/07/01 00:13:27;;;;;;;1.65;0.50;;;24.80;52.40;23.80;101008.00;;;;5061660;28;20090;-66
2022/07/01 00:16:13;;;;;;;1.15;0.60;;;24.70;52.40;23.80;101007.00;;;;5058621;28;20041;-66
2022/07/01 00:18:59;;;;;;;1.13;0.68;;;24.70;52.40;23.80;101011.00;;;;5055513;28;20080;-66
2022/07/01 00:21:45;;;;;;;0.50;0.50;;;24.70;52.50;23.80;101006.00;;;;5060937;28;20033;-66
2022/07/01 00:24:31;;;;;;;1.20;0.60;;;24.70;52.40;23.80;101015.00;;;;5058449;28;20094;-66
2022/07/01 00:27:17;;;;;;;0.73;0.50;;;24.80;52.50;23.80;101011.00;;;;5064401;28;20048;-66
2022/07/01 00:30:04;;;;;;;0.60;0.30;;;24.70;52.40;23.80;100992.00;;;;5061498;28;20063;-66
2022/07/01 00:32:52;;;;;;;1.13;0.43;;;24.70;52.40;23.80;101007.00;;;;5068580;28;20075;-66
2022/07/01 00:35:39;;;;;;;4.43;0.80;;;24.70;52.40;23.80;101008.00;;;;5061228;28;20040;-66
2022/07/01 00:38:25;;;;;;;1.40;0.52;;;24.70;52.40;23.80;101006.00;;;;5065642;28;20094;-66
2022/07/01 00:41:11;;;;;;;1.23;0.40;;;24.60;52.20;23.80;101021.00;;;;5068618;28;20494;-66
2022/07/01 00:43:57;;;;;;;2.03;0.50;;;24.70;52.30;23.80;101006.00;;;;5054701;28;20040;-66
2022/07/01 00:46:44;;;;;;;1.10;0.50;;;24.70;52.20;23.80;101009.00;;;;5066580;28;20401;-66
2022/07/01 00:49:30;;;;;;;0.80;0.60;;;24.70;52.20;23.80;101011.00;;;;5067203;28;20277;-66
2022/07/01 00:52:16;;;;;;;0.85;0.57;;;24.70;52.00;23.80;101010.00;;;;5050999;28;20459;-66
2022/07/01 00:55:03;;;;;;;0.70;0.50;;;24.70;52.20;23.80;101008.00;;;;5062545;28;20060;-66
2022/07/01 00:57:49;;;;;;;1.00;0.60;;;24.70;52.20;23.80;101008.00;;;;5051219;28;20036;-66
2022/07/01 01:00:38;;;;;;;2.70;0.80;;;24.60;52.20;23.80;100999.00;;;;5043019;28;20318;-66
2022/07/01 01:03:25;;;;;;;1.08;0.60;;;24.60;52.10;23.80;101015.00;;;;5039047;28;20037;-66
2022/07/01 01:06:11;;;;;;;1.52;0.50;;;24.60;52.20;23.80;101012.00;;;;5066010;28;20052;-66
2022/07/01 01:08:57;;;;;;;3.60;0.80;;;24.70;52.20;23.80;101018.00;;;;5041799;28;20094;-66
2022/07/01 01:11:43;;;;;;;0.90;0.50;;;24.70;52.20;23.80;101019.00;;;;5064768;28;20040;-66
2022/07/01 01:14:29;;;;;;;1.67;0.65;;;24.70;52.30;23.80;101006.00;;;;5051829;28;20463;-66
2022/07/01 01:17:16;;;;;;;1.45;0.57;;;24.60;52.20;23.80;101000.00;;;;5063654;28;20094;-66
2022/07/01 01:20:02;;;;;;;1.27;0.50;;;24.60;52.20;23.80;100992.00;;;;5047142;28;20047;-66
2022/07/01 01:22:48;;;;;;;1.85;0.70;;;24.70;52.30;23.80;101003.00;;;;5062683;28;20040;-66
2022/07/01 01:25:34;;;;;;;0.95;0.50;;;24.70;52.30;23.80;100994.00;;;;5049066;28;20078;-66
2022/07/01 01:28:20;;;;;;;1.00;0.50;;;24.70;52.30;23.80;100998.00;;;;5055558;28;20044;-66
2022/07/01 01:31:06;;;;;;;1.65;0.70;;;24.70;52.40;23.80;101004.00;;;;5045602;28;20041;-66
2022/07/01 01:33:52;;;;;;;0.55;0.50;;;24.70;52.30;23.80;101000.00;;;;5060469;28;20036;-66
2022/07/01 01:36:38;;;;;;;0.80;0.70;;;24.60;52.30;23.80;101011.00;;;;5063358;28;20059;-67
2022/07/01 01:39:24;;;;;;;1.00;0.80;;;24.70;52.30;23.80;100996.00;;;;5045598;28;20055;-66
2022/07/01 01:42:11;;;;;;;2.05;0.65;;;24.60;52.20;23.80;100996.00;;;;5063417;28;20075;-66
2022/07/01 01:44:57;;;;;;;1.73;0.70;;;24.60;52.10;23.80;101001.00;;;;5065047;28;20044;-66
2022/07/01 01:47:43;;;;;;;2.75;0.60;;;24.60;52.20;23.80;100999.00;;;;5063655;28;20582;-66
2022/07/01 01:50:29;;;;;;;0.85;0.82;;;24.70;52.30;23.80;100999.00;;;;5042084;28;20467;-66
2022/07/01 01:53:15;;;;;;;1.45;1.10;;;24.70;52.20;23.80;101008.00;;;;5051475;28;20067;-66
2022/07/01 01:56:01;;;;;;;2.10;1.08;;;24.60;52.10;23.80;101010.00;;;;5061903;28;20061;-66
2022/07/01 01:58:47;;;;;;;2.08;0.90;;;24.70;52.10;23.80;101019.00;;;;5052846;28;20509;-66
2022/07/01 02:01:33;;;;;;;2.22;1.00;;;24.60;52.00;23.80;101025.00;;;;5062245;28;20482;-66
2022/07/01 02:04:20;;;;;;;1.77;1.05;;;24.60;52.00;23.80;101034.00;;;;5064660;28;20078;-66
2022/07/01 02:07:06;;;;;;;1.57;0.90;;;24.60;52.00;23.70;101038.00;;;;5064292;28;20084;-66
2022/07/01 02:09:52;;;;;;;2.67;1.25;;;24.70;52.00;23.70;101041.00;;;;5059488;28;20037;-66
2022/07/01 02:12:38;;;;;;;1.85;0.98;;;24.70;52.00;23.80;101045.00;;;;5066008;28;20221;-66
2022/07/01 02:15:24;;;;;;;1.55;0.88;;;24.60;51.90;23.70;101038.00;;;;5041975;28;20470;-66
2022/07/01 02:18:10;;;;;;;1.50;0.90;;;24.60;51.90;23.70;101036.00;;;;5065951;28;20040;-66
2022/07/01 02:20:56;;;;;;;1.33;1.23;;;24.60;51.90;23.70;101023.00;;;;5063269;28;20044;-66
2022/07/01 02:23:42;;;;;;;2.67;1.20;;;24.60;51.90;23.70;101025.00;;;;5062675;28;20085;-66
2022/07/01 02:26:28;;;;;;;2.67;1.20;;;24.60;52.00;23.70;101024.00;;;;5061375;28;20398;-66
2022/07/01 02:29:14;;;;;;;3.40;1.27;;;24.60;51.90;23.70;101033.00;;;;5064825;28;20037;-66
2022/07/01 02:32:00;;;;;;;2.63;1.67;;;24.60;52.00;23.70;101044.00;;;;5062148;28;20394;-66
2022/07/01 02:34:46;;;;;;;3.45;1.70;;;24.60;51.80;23.70;101047.00;;;;5063498;28;20052;-66
2022/07/01 02:37:33;;;;;;;1.48;1.38;;;24.60;51.80;23.70;101054.00;;;;5057485;28;20051;-66
2022/07/01 02:40:19;;;;;;;3.23;1.47;;;24.60;51.80;23.70;101054.00;;;;5061341;28;20110;-66
2022/07/01 02:43:08;;;;;;;3.05;1.67;;;24.60;51.80;23.70;101065.00;;;;5047113;28;20036;-66
2022/07/01 02:45:57;;;;;;;3.22;1.50;;;24.60;51.80;23.70;101064.00;;;;5062329;28;20041;-66
2022/07/01 02:48:43;;;;;;;1.92;1.60;;;24.60;51.80;23.70;101079.00;;;;5044511;28;20052;-66
2022/07/01 02:51:29;;;;;;;2.55;1.80;;;24.60;51.80;23.70;101077.00;;;;5060014;28;20553;-66
2022/07/01 02:54:16;;;;;;;3.05;1.52;;;24.60;51.70;23.70;101083.00;;;;5065249;28;20048;-66
2022/07/01 02:57:02;;;;;;;2.45;1.90;;;24.60;51.70;23.70;101093.00;;;;5060824;28;20366;-66
2022/07/01 02:59:50;;;;;;;2.22;2.00;;;24.60;51.60;23.60;101084.00;;;;5060223;28;20119;-66
2022/07/01 03:02:36;;;;;;;2.22;1.83;;;24.60;51.70;23.60;101087.00;;;;5060895;28;20072;-66
2022/07/01 03:05:22;;;;;;;2.95;1.85;;;24.60;51.60;23.60;101089.00;;;;5065649;28;20043;-66
2022/07/01 03:08:08;;;;;;;3.70;2.08;;;24.60;51.60;23.60;101095.00;;;;5060244;28;20043;-66
2022/07/01 03:10:54;;;;;;;2.13;1.90;;;24.60;51.60;23.60;101100.00;;;;5059571;28;20041;-66
2022/07/01 03:13:40;;;;;;;4.10;1.80;;;24.50;51.60;23.60;101099.00;;;;5063043;28;20032;-66
2022/07/01 03:16:26;;;;;;;2.35;2.10;;;24.60;51.60;23.60;101107.00;;;;5060422;28;20394;-66
2022/07/01 03:19:13;;;;;;;2.25;2.00;;;24.60;51.70;23.60;101106.00;;;;5064723;28;20052;-66
2022/07/01 03:21:59;;;;;;;2.50;2.20;;;24.60;51.70;23.60;101112.00;;;;5056334;28;20045;-66
2022/07/01 03:24:45;;;;;;;2.60;2.40;;;24.50;51.40;23.60;101116.00;;;;5058952;28;20040;-66
2022/07/01 03:27:31;;;;;;;3.55;2.60;;;24.50;51.50;23.60;101117.00;;;;5065108;28;20052;-66
2022/07/01 03:30:18;;;;;;;3.13;2.47;;;24.50;51.50;23.60;101123.00;;;;5049504;28;20466;-66
2022/07/01 03:33:04;;;;;;;2.97;2.35;;;24.50;51.40;23.60;101136.00;;;;5063679;28;20055;-66
2022/07/01 03:35:50;;;;;;;2.53;2.33;;;24.50;51.40;23.60;101136.00;;;;5061352;28;20040;-66
2022/07/01 03:38:36;;;;;;;4.70;2.47;;;24.50;51.40;23.60;101138.00;;;;5062040;28;20059;-66
2022/07/01 03:41:22;;;;;;;3.22;2.65;;;24.50;51.40;23.60;101142.00;;;;5059702;28;20055;-66
2022/07/01 03:44:08;;;;;;;4.75;2.85;;;24.50;51.40;23.60;101139.00;;;;5063985;28;20044;-67
2022/07/01 03:46:54;;;;;;;4.25;3.28;;;24.50;51.40;23.60;101153.00;;;;5062560;28;20068;-66
2022/07/01 03:49:40;;;;;;;3.63;3.25;;;24.50;51.30;23.60;101148.00;;;;5057163;28;20063;-66
2022/07/01 03:52:26;;;;;;;3.75;3.20;;;24.50;51.30;23.60;101153.00;;;;5061067;28;20094;-66
2022/07/01 03:55:13;;;;;;;4.05;3.65;;;24.50;51.30;23.60;101159.00;;;;5060909;28;20040;-66
2022/07/01 03:57:59;;;;;;;5.32;3.72;;;24.50;51.30;23.60;101162.00;;;;5048360;28;20040;-66
2022/07/01 04:00:45;;;;;;;4.13;3.35;;;24.50;51.30;23.60;101162.00;;;;5059065;28;20037;-66
2022/07/01 04:03:31;;;;;;;4.97;4.00;;;24.50;51.40;23.60;101164.00;;;;5064161;28;20454;-66
2022/07/01 04:06:17;;;;;;;4.47;3.30;;;24.50;51.40;23.60;101164.00;;;;5062900;28;20044;-66
2022/07/01 04:09:04;;;;;;;3.92;3.63;;;24.50;51.50;23.60;101171.00;;;;5049846;28;20044;-66
2022/07/01 04:11:50;;;;;;;5.22;3.83;;;24.50;51.60;23.60;101165.00;;;;5065629;28;20117;-66
2022/07/01 04:14:36;;;;;;;5.30;3.78;;;24.40;51.50;23.60;101161.00;;;;5050807;28;20064;-66
2022/07/01 04:17:22;;;;;;;5.15;3.70;;;24.40;51.40;23.60;101165.00;;;;5065688;28;20045;-66
2022/07/01 04:20:09;;;;;;;3.80;3.30;;;24.50;51.60;23.60;101166.00;;;;5066927;28;20068;-66
2022/07/01 04:22:55;;;;;;;4.03;3.63;;;24.50;51.70;23.60;101163.00;;;;5067155;28;20123;-66
2022/07/01 04:25:41;;;;;;;4.17;3.73;;;24.40;51.40;23.60;101164.00;;;;5052054;28;20389;-66
2022/07/01 04:28:27;;;;;;;3.97;3.60;;;24.40;51.40;23.60;101168.00;;;;5069677;28;20044;-66
2022/07/01 04:31:14;;;;;;;5.05;4.55;;;24.40;51.40;23.60;101177.00;;;;5050490;28;20036;-66
2022/07/01 04:34:00;;;;;;;4.97;4.15;;;24.40;51.40;23.60;101171.00;;;;5052576;28;20045;-66
2022/07/01 04:36:46;;;;;;;4.50;4.10;;;24.50;51.50;23.60;101165.00;;;;5068543;28;20271;-66
2022/07/01 04:39:32;;;;;;;5.03;3.78;;;24.40;51.40;23.50;101166.00;;;;5067840;28;20078;-66
2022/07/01 04:42:20;;;;;;;5.70;3.83;;;24.50;51.50;23.50;101169.00;;;;5067233;28;20040;-66
2022/07/01 04:45:07;;;;;;;4.88;3.50;;;24.40;51.50;23.50;101179.00;;;;5067862;28;20401;-66
2022/07/01 04:47:53;;;;;;;5.22;4.00;;;24.50;51.70;23.50;101180.00;;;;5045139;28;20049;-66
2022/07/01 04:50:39;;;;;;;4.93;3.95;;;24.50;51.60;23.50;101187.00;;;;5064920;28;20577;-66
2022/07/01 04:53:25;;;;;;;5.90;3.90;;;24.40;51.40;23.50;101186.00;;;;5064987;28;20041;-67
2022/07/01 04:56:11;;;;;;;5.22;4.25;;;24.40;51.50;23.50;101186.00;;;;5065633;28;20056;-66
2022/07/01 04:58:57;;;;;;;5.65;4.72;;;24.40;51.50;23.50;101184.00;;;;5052011;28;20063;-66
2022/07/01 05:01:43;;;;;;;4.57;4.00;;;24.40;51.50;23.50;101179.00;;;;5051302;28;20406;-67
2022/07/01 05:04:29;;;;;;;4.43;3.72;;;24.40;51.50;23.50;101183.00;;;;5068130;28;20064;-67
2022/07/01 05:07:27;;;;;;;4.22;3.80;;;24.40;51.50;23.50;101168.00;;;;5063863;28;20478;-67
2022/07/01 05:10:14;;;;;;;4.80;4.40;;;24.40;51.50;23.50;101168.00;;;;5063184;28;20118;-67
2022/07/01 05:13:00;;;;;;;4.75;3.95;;;24.40;51.60;23.50;101176.00;;;;5044232;28;20032;-66
2022/07/01 05:15:46;;;;;;;4.68;3.97;;;24.40;51.60;23.50;101179.00;;;;5060549;28;20047;-66
2022/07/01 05:24:41;;;;;;;5.68;4.53;;;24.40;51.50;23.50;101194.00;;;;5063105;28;20047;-67
2022/07/01 05:27:27;;;;;;;5.40;4.50;;;24.40;51.50;23.50;101194.00;;;;5060418;28;20047;-67
2022/07/01 05:30:14;;;;;;;6.03;4.68;;;24.40;51.50;23.50;101185.00;;;;5065674;28;20040;-67
2022/07/01 05:33:00;;;;;;;6.20;4.82;;;24.40;51.60;23.50;101191.00;;;;5058146;28;20033;-66
2022/07/01 05:35:46;;;;;;;5.63;4.80;;;24.40;51.50;23.50;101182.00;;;;5064968;28;20040;-66
2022/07/01 05:38:32;;;;;;;8.00;5.50;;;24.40;51.60;23.50;101185.00;;;;5063867;28;20040;-67
2022/07/01 05:41:18;;;;;;;7.18;5.53;;;24.40;51.50;23.50;101185.00;;;;5063663;28;20345;-66
2022/07/01 05:44:04;;;;;;;7.63;5.63;;;24.40;51.60;23.50;101179.00;;;;5062669;28;20059;-67
2022/07/01 05:46:50;;;;;;;7.72;5.97;;;24.40;51.50;23.50;101175.00;;;;5050056;28;20045;-66
2022/07/01 05:49:36;;;;;;;7.78;5.90;;;24.40;51.40;23.50;101183.00;;;;5058123;28;20037;-66
2022/07/01 05:52:22;;;;;;;7.35;6.50;;;24.40;51.40;23.50;101182.00;;;;5062141;28;20132;-66
2022/07/01 05:55:09;;;;;;;11.18;8.07;;;24.40;51.40;23.50;101180.00;;;;5063352;28;20394;-66
2022/07/01 05:57:55;;;;;;;6.97;6.28;;;24.40;51.30;23.50;101190.00;;;;5048063;28;20253;-66
2022/07/01 06:00:41;;;;;;;11.85;7.05;;;24.40;51.40;23.50;101188.00;;;;5058188;28;20261;-67
2022/07/01 06:03:27;;;;;;;8.80;6.93;;;24.40;52.00;23.50;101197.00;;;;5061384;28;20041;-66
2022/07/01 06:06:13;;;;;;;8.00;6.97;;;24.30;51.30;23.50;101200.00;;;;5060218;28;20570;-66
2022/07/01 06:08:59;;;;;;;11.00;7.75;;;24.40;51.40;23.50;101201.00;;;;5059997;28;20044;-66
2022/07/01 06:11:46;;;;;;;10.63;7.63;;;24.40;51.40;23.50;101209.00;;;;5057905;28;20090;-66
2022/07/01 06:14:32;;;;;;;9.43;7.28;;;24.40;51.40;23.50;101200.00;;;;5061860;28;20048;-66
2022/07/01 06:17:18;;;;;;;11.30;7.57;;;24.30;51.40;23.40;101191.00;;;;5058420;28;20090;-66
2022/07/01 06:20:04;;;;;;;9.70;7.47;;;24.30;51.30;23.50;101187.00;;;;5060645;28;20276;-66
2022/07/01 06:22:50;;;;;;;9.77;8.50;;;24.30;51.30;23.40;101184.00;;;;5031872;28;20409;-66
2022/07/01 06:25:36;;;;;;;9.45;8.02;;;24.30;51.20;23.40;101185.00;;;;5045601;28;20394;-66
2022/07/01 06:28:29;;;;;;;10.02;7.95;;;24.40;51.30;23.40;101188.00;;;;5055734;28;20049;-67
2022/07/01 06:31:15;;;;;;;9.30;7.63;;;24.30;51.20;23.40;101190.00;;;;5065316;28;20044;-67
2022/07/01 06:34:01;;;;;;;9.13;7.43;;;24.30;51.20;23.40;101190.00;;;;5062778;28;20040;-66
2022/07/01 06:36:47;;;;;;;9.43;7.57;;;24.40;51.20;23.40;101198.00;;;;5063667;28;20036;-67
2022/07/01 06:39:33;;;;;;;11.25;8.90;;;24.30;51.20;23.40;101211.00;;;;5066437;28;20091;-67
2022/07/01 06:42:21;;;;;;;10.57;8.75;;;24.40;51.10;23.40;101219.00;;;;5060854;28;20131;-67
2022/07/01 06:45:07;;;;;;;9.30;7.63;;;24.30;50.90;23.40;101224.00;;;;5063835;28;20517;-67
2022/07/01 06:47:53;;;;;;;10.15;7.72;;;24.30;50.90;23.40;101223.00;;;;5062531;28;20044;-67
2022/07/01 06:50:39;;;;;;;10.70;7.88;;;24.40;50.90;23.40;101225.00;;;;5060745;28;20032;-67
2022/07/01 06:53:25;;;;;;;9.10;6.90;;;24.30;50.80;23.40;101230.00;;;;5063626;28;20048;-66
2022/07/01 06:56:12;;;;;;;9.15;7.97;;;24.30;50.70;23.40;101226.00;;;;5064662;28;20037;-67
2022/07/01 06:58:58;;;;;;;9.77;7.95;;;24.30;50.70;23.40;101222.00;;;;5054565;28;20051;-66
2022/07/01 07:01:44;;;;;;;8.15;6.82;;;24.20;50.70;23.40;101231.00;;;;5047652;28;20040;-67
2022/07/01 07:04:30;;;;;;;9.65;7.22;;;24.30;50.80;23.40;101234.00;;;;5048636;28;20451;-67
2022/07/01 07:07:17;;;;;;;7.70;6.68;;;24.30;50.60;23.40;101241.00;;;;5063010;28;20044;-66
2022/07/01 07:10:03;;;;;;;7.85;6.80;;;24.20;50.90;23.40;101253.00;;;;5061412;28;20441;-66
2022/07/01 07:12:49;;;;;;;7.65;6.60;;;24.30;50.50;23.30;101253.00;;;;5059081;28;20095;-66
2022/07/01 07:15:35;;;;;;;6.82;5.80;;;24.20;50.50;23.30;101256.00;;;;5043542;28;20063;-66
2022/07/01 07:18:21;;;;;;;9.57;7.75;;;24.20;50.50;23.30;101256.00;;;;5058209;28;20033;-67
2022/07/01 07:21:08;;;;;;;7.72;6.82;;;24.20;51.10;23.30;101266.00;;;;5048300;28;20032;-66
2022/07/01 07:23:54;;;;;;;8.30;6.18;;;24.20;50.40;23.30;101271.00;;;;5060980;28;20036;-66
2022/07/01 07:26:40;;;;;;;9.73;6.10;;;24.20;50.40;23.30;101272.00;;;;5053684;28;20041;-66
2022/07/01 07:29:26;;;;;;;7.15;5.38;;;24.20;50.50;23.30;101281.00;;;;5046097;28;20052;-67
2022/07/01 07:32:12;;;;;;;7.50;6.05;;;24.20;50.50;23.30;101280.00;;;;5063845;28;20052;-67
2022/07/01 07:34:58;;;;;;;8.68;6.57;;;24.20;50.40;23.30;101285.00;;;;5062938;28;20283;-66
2022/07/01 07:37:45;;;;;;;7.03;5.90;;;24.20;50.40;23.30;101296.00;;;;5064248;28;20390;-67
2022/07/01 07:40:31;;;;;;;6.85;5.85;;;24.20;50.30;23.30;101287.00;;;;5055015;28;20036;-67
2022/07/01 07:43:17;;;;;;;9.93;6.68;;;24.20;50.30;23.30;101291.00;;;;5064023;28;20421;-67
2022/07/01 07:46:04;;;;;;;6.65;5.57;;;24.20;50.30;23.30;101277.00;;;;5065527;28;20055;-67
2022/07/01 07:48:50;;;;;;;8.10;6.50;;;24.20;50.30;23.30;101273.00;;;;5063654;28;20075;-66
2022/07/01 07:51:36;;;;;;;7.70;5.85;;;24.20;50.30;23.30;101265.00;;;;5057713;28;20044;-66
2022/07/01 07:54:22;;;;;;;5.65;4.97;;;24.20;50.30;23.30;101270.00;;;;5065030;28;20289;-66
2022/07/01 07:57:09;;;;;;;6.95;5.50;;;24.20;50.40;23.30;101281.00;;;;5064302;28;20040;-67
2022/07/01 07:59:55;;;;;;;6.28;5.60;;;24.20;51.00;23.30;101287.00;;;;5064231;28;20119;-67
2022/07/01 08:02:42;;;;;;;7.30;5.03;;;24.20;50.40;23.30;101298.00;;;;5063499;28;20546;-67
2022/07/01 08:05:28;;;;;;;6.53;5.55;;;24.20;50.50;23.30;101293.00;;;;5064344;28;20079;-66
2022/07/01 08:08:14;;;;;;;7.80;5.80;;;24.20;50.30;23.30;101277.00;;;;5064997;28;20066;-66
2022/07/01 08:11:00;;;;;;;5.80;5.20;;;24.30;50.30;23.30;101273.00;;;;5049202;28;20148;-67
2022/07/01 08:13:46;;;;;;;6.40;5.25;;;24.20;50.30;23.30;101278.00;;;;5064232;28;20044;-66
2022/07/01 08:16:32;;;;;;;6.38;5.18;;;24.20;50.20;23.30;101274.00;;;;5063297;28;20040;-66
2022/07/01 08:19:18;;;;;;;5.70;5.13;;;24.20;50.20;23.30;101263.00;;;;5064381;28;20045;-66
2022/07/01 08:22:04;;;;;;;6.30;5.47;;;24.20;50.20;23.30;101251.00;;;;5064132;28;20429;-66
2022/07/01 08:24:50;;;;;;;6.32;4.70;;;24.20;50.00;23.30;101255.00;;;;5060165;28;20040;-67
2022/07/01 08:27:36;;;;;;;5.40;4.68;;;24.20;50.20;23.30;101267.00;;;;5063694;28;20067;-66
2022/07/01 08:30:22;;;;;;;5.20;4.15;;;24.20;50.10;23.30;101285.00;;;;5047930;28;20083;-66
2022/07/01 08:33:09;;;;;;;4.70;4.15;;;24.20;50.10;23.30;101287.00;;;;5063410;28;20036;-67
2022/07/01 08:35:55;;;;;;;5.05;4.07;;;24.10;50.10;23.30;101275.00;;;;5057335;28;20041;-67
2022/07/01 08:38:41;;;;;;;4.10;3.53;;;24.20;50.70;23.30;101283.00;;;;5059482;28;20055;-67
2022/07/01 08:41:27;;;;;;;3.88;3.47;;;24.20;50.20;23.30;101284.00;;;;5043066;28;20105;-67
2022/07/01 08:44:13;;;;;;;4.63;3.75;;;24.20;50.20;23.30;101292.00;;;;5046443;28;20063;-67
2022/07/01 08:46:59;;;;;;;4.75;3.80;;;24.20;50.10;23.30;101285.00;;;;5059635;28;20372;-67
2022/07/01 08:49:45;;;;;;;4.10;3.33;;;24.20;50.10;23.30;101288.00;;;;5036459;28;20384;-66
2022/07/01 08:52:31;;;;;;;4.82;3.58;;;24.20;50.00;23.30;101318.00;;;;5049913;28;20036;-66
2022/07/01 08:55:19;;;;;;;4.03;3.05;;;24.20;50.10;23.30;101313.00;;;;5041798;28;20474;-68
2022/07/01 08:58:05;;;;;;;3.88;3.05;;;24.20;50.30;23.30;101320.00;;;;5045646;28;20049;-66
2022/07/01 09:00:51;;;;;;;3.58;2.80;;;24.20;50.10;23.30;101314.00;;;;5061882;28;20055;-65
2022/07/01 09:03:37;;;;;;;4.28;2.83;;;24.20;49.90;23.30;101327.00;;;;5044836;28;20474;-66
2022/07/01 09:06:26;;;;;;;6.63;2.88;;;24.20;50.00;23.30;101340.00;;;;5059314;28;20044;-66
2022/07/01 09:09:20;;;;;;;8.75;3.45;;;24.20;49.80;23.30;101352.00;;;;5050486;28;20107;-66
2022/07/01 09:12:06;;;;;;;3.83;2.55;;;24.20;49.70;23.30;101349.00;;;;5065804;28;20158;-66
2022/07/01 09:14:53;;;;;;;4.93;2.47;;;24.20;49.60;23.30;101357.00;;;;5044073;28;20219;-66
2022/07/01 09:17:39;;;;;;;4.35;2.88;;;24.20;49.60;23.30;101356.00;;;;5062771;28;20487;-67
2022/07/01 09:20:30;;;;;;;3.88;2.25;;;24.20;49.40;23.30;101351.00;;;;5066395;28;20045;-66
2022/07/01 09:23:18;;;;;;;3.53;2.20;;;24.30;49.40;23.30;101337.00;;;;5050906;28;20037;-67
2022/07/01 09:26:04;;;;;;;2.63;2.10;;;24.30;49.50;23.30;101344.00;;;;5064795;28;20041;-66
2022/07/01 09:28:57;;;;;;;5.65;2.40;;;24.30;49.70;23.30;101348.00;;;;5044217;28;20041;-66
2022/07/01 09:31:49;;;;;;;2.30;1.85;;;24.30;49.60;23.30;101355.00;;;;5065696;28;20418;-66
2022/07/01 09:34:44;;;;;;;3.40;2.10;;;24.20;49.50;23.30;101357.00;;;;5051775;28;20064;-66
2022/07/01 09:37:31;;;;;;;2.47;1.92;;;24.20;49.40;23.30;101361.00;;;;5064040;28;20055;-66
2022/07/01 09:40:17;;;;;;;3.15;1.90;;;24.20;49.40;23.30;101352.00;;;;5046228;28;20032;-66
2022/07/01 09:43:03;;;;;;;5.50;2.20;;;24.20;49.20;23.30;101358.00;;;;5036033;28;20044;-66
2022/07/01 09:46:03;;;;;;;4.18;2.33;;;24.30;49.20;23.30;101352.00;;;;5065506;28;20490;-66
2022/07/01 09:48:49;;;;;;;3.45;1.98;;;24.20;49.00;23.30;101348.00;;;;5034628;28;20276;-66
2022/07/01 09:51:35;;;;;;;3.55;2.05;;;24.30;49.50;23.30;101350.00;;;;5063856;28;20059;-66
2022/07/01 09:54:21;;;;;;;2.53;1.88;;;24.30;49.20;23.30;101350.00;;;;5063726;28;20365;-66
2022/07/01 09:57:07;;;;;;;2.17;1.83;;;24.30;49.00;23.30;101343.00;;;;5061784;28;20120;-66
2022/07/01 09:59:53;;;;;;;2.25;1.83;;;24.20;48.80;23.30;101346.00;;;;5057924;28;20036;-66
2022/07/01 10:02:39;;;;;;;3.15;1.70;;;24.20;48.80;23.30;101358.00;;;;5058710;28;20486;-66
2022/07/01 10:05:25;;;;;;;3.00;1.67;;;24.30;48.80;23.30;101368.00;;;;5046684;28;20044;-66
2022/07/01 10:08:38;;;;;;;2.22;1.40;;;24.30;48.60;23.30;101361.00;;;;5047937;28;20052;-66
2022/07/01 10:12:01;;;;;;;2.60;1.30;;;24.30;48.40;23.30;101362.00;;;;5058433;28;20549;-66
2022/07/01 10:14:47;;;;;;;2.15;1.50;;;24.20;48.10;23.30;101363.00;;;;5035994;28;20407;-66
2022/07/01 10:17:41;;;;;;;1.15;1.05;;;24.30;48.00;23.30;101363.00;;;;5014018;28;20053;-66
2022/07/01 10:20:29;;;;;;;1.48;1.00;;;24.20;48.00;23.30;101361.00;;;;5045175;28;20125;-66
2022/07/01 10:23:15;;;;;;;;;;;24.30;48.10;23.30;101348.00;;;;5046122;28;20115;-66
2022/07/01 10:26:03;;;;;;;2.25;1.20;;;24.30;48.70;23.30;101351.00;;;;5062319;28;20345;-66
2022/07/01 10:28:52;;;;;;;1.30;1.20;;;24.30;48.20;23.30;101359.00;;;;5045868;28;20119;-66
2022/07/01 10:31:38;;;;;;;1.88;1.30;;;24.20;48.10;23.30;101361.00;;;;5047441;28;20051;-66
2022/07/01 10:34:25;;;;;;;3.38;1.15;;;24.30;48.20;23.30;101359.00;;;;5056083;28;20398;-66
2022/07/01 10:37:11;;;;;;;1.92;1.30;;;24.40;48.00;23.30;101371.00;;;;5046282;28;20044;-66
2022/07/01 10:40:01;;;;;;;2.15;1.25;;;24.30;48.30;23.30;101369.00;;;;5046446;28;20037;-66
2022/07/01 10:42:59;;;;;;;2.05;0.95;;;24.30;48.40;23.30;101365.00;;;;5058852;28;20056;-66
2022/07/01 10:45:45;;;;;;;1.27;1.17;;;24.30;48.00;23.30;101373.00;;;;5058884;28;20045;-67
2022/07/01 10:48:32;;;;;;;1.52;1.30;;;24.30;48.00;23.30;101364.00;;;;5044194;28;20359;-66
2022/07/01 10:51:54;;;;;;;2.60;1.40;;;24.20;48.10;23.30;101360.00;;;;5049164;28;20113;-66
2022/07/01 10:54:40;;;;;;;2.38;1.40;;;24.30;47.90;23.30;101358.00;;;;5049215;28;20135;-66
2022/07/01 10:57:37;;;;;;;1.35;0.90;;;24.20;48.10;23.30;101362.00;;;;5059881;28;20036;-66
2022/07/01 11:00:29;;;;;;;2.25;1.38;;;24.30;47.80;23.30;101359.00;;;;5055975;28;20040;-66
2022/07/01 11:03:18;;;;;;;2.10;1.40;;;24.30;47.90;23.30;101376.00;;;;5052771;28;20484;-66
2022/07/01 11:06:04;;;;;;;1.63;1.38;;;24.30;47.80;23.30;101378.00;;;;5049880;28;20045;-66
2022/07/01 11:08:50;;;;;;;2.33;1.58;;;24.30;47.90;23.30;101382.00;;;;5055486;28;20063;-66
2022/07/01 11:11:36;;;;;;;2.10;1.35;;;24.40;47.90;23.30;101378.00;;;;5062278;28;20045;-67
2022/07/01 11:14:22;;;;;;;2.75;1.80;;;24.30;48.20;23.30;101381.00;;;;5059893;28;20390;-66
2022/07/01 11:17:09;;;;;;;3.28;1.52;;;24.30;48.10;23.30;101371.00;;;;5061429;28;20036;-67
2022/07/01 11:19:57;;;;;;;3.08;1.63;;;24.30;48.30;23.30;101381.00;;;;5064583;28;20048;-66
2022/07/01 11:22:43;;;;;;;3.42;1.73;;;24.30;47.80;23.30;101360.00;;;;5042266;28;20044;-66
2022/07/01 11:25:29;;;;;;;1.95;1.55;;;24.30;47.90;23.30;101367.00;;;;5057876;28;20040;-67
2022/07/01 11:28:16;;;;;;;2.90;1.45;;;24.30;47.80;23.30;101365.00;;;;5048012;28;20087;-67
2022/07/01 11:31:02;;;;;;;2.72;1.60;;;24.30;48.00;23.30;101361.00;;;;5060442;28;20375;-67
2022/07/01 11:33:51;;;;;;;2.42;1.50;;;24.40;47.90;23.30;101362.00;;;;5043424;28;20089;-67
2022/07/01 11:39:43;;;;;;;1.40;1.30;;;24.30;47.60;23.30;101346.00;;;;5039797;28;20044;-66
2022/07/01 11:42:29;;;;;;;2.57;1.60;;;24.50;47.70;23.30;101352.00;;;;5066299;28;20101;-67
2022/07/01 11:45:25;;;;;;;4.28;1.67;;;24.40;47.90;23.30;101340.00;;;;5064592;28;21056;-67
2022/07/01 11:48:11;;;;;;;3.47;1.83;;;24.40;48.30;23.40;101345.00;;;;5050589;28;20040;-67
2022/07/01 11:50:58;;;;;;;2.03;1.23;;;24.40;47.90;23.40;101338.00;;;;5061851;28;20044;-66
2022/07/01 11:53:48;;;;;;;1.75;1.50;;;24.40;47.80;23.40;101337.00;;;;5057875;28;20123;-67
2022/07/01 11:56:38;;;;;;;2.70;1.60;;;24.40;47.70;23.40;101338.00;;;;5062647;28;20037;-67
2022/07/01 11:59:24;;;;;;;2.28;1.55;;;24.40;47.50;23.40;101351.00;;;;5049253;28;20047;-66
2022/07/01 12:02:12;;;;;;;2.30;1.63;;;24.40;47.40;23.40;101339.00;;;;5065420;28;20286;-67
2022/07/01 12:04:59;;;;;;;2.60;1.50;;;24.40;47.30;23.40;101333.00;;;;5057079;28;20214;-66
2022/07/01 12:07:46;;;;;;;3.97;1.33;;;24.40;47.40;23.40;101329.00;;;;5047993;28;20482;-66
2022/07/01 12:10:32;;;;;;;2.88;1.20;;;24.50;47.20;23.40;101334.00;;;;5057156;28;20049;-66
2022/07/01 12:13:25;;;;;;;1.77;1.35;;;24.40;47.20;23.40;101330.00;;;;5046981;28;20505;-67
2022/07/01 12:16:12;;;;;;;2.28;1.50;;;24.40;46.80;23.40;101332.00;;;;5043311;28;20040;-66
2022/07/01 12:19:00;;;;;;;1.23;1.13;;;24.50;46.80;23.40;101326.00;;;;5043501;28;20044;-66
2022/07/01 12:21:52;;;;;;;1.83;1.10;;;24.50;46.70;23.40;101322.00;;;;5061022;28;20051;-66
2022/07/01 12:24:38;;;;;;;3.90;1.10;;;24.50;46.70;23.40;101324.00;;;;5032994;28;20122;-67